Weather at Miami International Airport

Public forecast

Using degrees Fahrenheit for public forecast. Weather courtesy of forecast.io.

Current aviation weather report (METAR) for Miami International Airport

Retrieved 2021/04/11 08:53 UTC (1 hour ago):

KMIA 110853Z 17006KT 10SM FEW028 SCT120 OVC200 25/22 A2982 RMK AO2 SLP098 T02500217 56026

Aviation forecast (TAF) for Miami International Airport

Retrieved 2021/04/11 06:46 UTC (3 hours ago):

TAF KMIA 110544Z 1106/1212 10008KT P6SM FEW030 BKN100 BKN250 FM111400 17012G22KT P6SM VCTS SCT025CB OVC050 FM111800 22017G27KT P6SM VCTS BKN025CB OVC050 PROB30 1119/1124 VRB25G35KT 3SM TSRA BKN015CB OVC030 FM120000 24007KT P6SM VCSH SCT030 BKN080 BKN250